sensor_id;sensor_type;location;lat;lon;timestamp;P1;durP1;ratioP1;P2;durP2;ratioP2
53261;SDS011;39658;51.090;-1.786;2023-10-08T00:02:22;16.05;;;7.00;;
53261;SDS011;39658;51.090;-1.786;2023-10-08T00:04:52;19.27;;;6.18;;
53261;SDS011;39658;51.090;-1.786;2023-10-08T00:07:20;16.10;;;5.82;;
53261;SDS011;39658;51.090;-1.786;2023-10-08T00:09:49;14.35;;;5.50;;
53261;SDS011;39658;51.090;-1.786;2023-10-08T00:12:17;15.35;;;5.40;;
53261;SDS011;39658;51.090;-1.786;2023-10-08T00:14:44;15.15;;;5.88;;
53261;SDS011;39658;51.090;-1.786;2023-10-08T00:17:14;14.80;;;5.57;;
53261;SDS011;39658;51.090;-1.786;2023-10-08T00:19:42;18.38;;;6.03;;
53261;SDS011;39658;51.090;-1.786;2023-10-08T00:22:10;18.25;;;5.70;;
53261;SDS011;39658;51.090;-1.786;2023-10-08T00:24:38;13.38;;;5.63;;
53261;SDS011;39658;51.090;-1.786;2023-10-08T00:27:07;13.32;;;4.88;;
53261;SDS011;39658;51.090;-1.786;2023-10-08T00:29:34;13.38;;;5.65;;
53261;SDS011;39658;51.090;-1.786;2023-10-08T00:32:05;17.73;;;6.60;;
53261;SDS011;39658;51.090;-1.786;2023-10-08T00:34:37;15.02;;;5.80;;
53261;SDS011;39658;51.090;-1.786;2023-10-08T00:37:07;15.65;;;6.25;;
53261;SDS011;39658;51.090;-1.786;2023-10-08T00:39:37;16.10;;;6.18;;
53261;SDS011;39658;51.090;-1.786;2023-10-08T00:42:05;16.10;;;6.28;;
53261;SDS011;39658;51.090;-1.786;2023-10-08T00:44:33;15.65;;;6.55;;
53261;SDS011;39658;51.090;-1.786;2023-10-08T00:47:06;15.82;;;6.22;;
53261;SDS011;39658;51.090;-1.786;2023-10-08T00:49:36;17.90;;;7.45;;
53261;SDS011;39658;51.090;-1.786;2023-10-08T00:52:19;19.17;;;7.38;;
53261;SDS011;39658;51.090;-1.786;2023-10-08T00:55:05;18.80;;;6.85;;
53261;SDS011;39658;51.090;-1.786;2023-10-08T00:57:46;17.08;;;6.10;;
53261;SDS011;39658;51.090;-1.786;2023-10-08T01:00:17;14.10;;;5.97;;
53261;SDS011;39658;51.090;-1.786;2023-10-08T01:05:20;20.13;;;7.80;;
53261;SDS011;39658;51.090;-1.786;2023-10-08T01:07:50;18.63;;;6.70;;
53261;SDS011;39658;51.090;-1.786;2023-10-08T01:10:20;20.35;;;6.70;;
53261;SDS011;39658;51.090;-1.786;2023-10-08T01:12:50;18.70;;;6.43;;
53261;SDS011;39658;51.090;-1.786;2023-10-08T01:15:29;16.38;;;6.45;;
53261;SDS011;39658;51.090;-1.786;2023-10-08T01:18:01;18.55;;;6.53;;
53261;SDS011;39658;51.090;-1.786;2023-10-08T01:20:30;16.15;;;6.60;;
53261;SDS011;39658;51.090;-1.786;2023-10-08T01:23:03;19.92;;;6.80;;
53261;SDS011;39658;51.090;-1.786;2023-10-08T01:25:34;15.40;;;6.55;;
53261;SDS011;39658;51.090;-1.786;2023-10-08T01:28:03;17.25;;;6.32;;
53261;SDS011;39658;51.090;-1.786;2023-10-08T01:30:41;16.80;;;6.32;;
53261;SDS011;39658;51.090;-1.786;2023-10-08T01:33:11;14.77;;;6.68;;
53261;SDS011;39658;51.090;-1.786;2023-10-08T01:35:40;16.38;;;6.22;;
53261;SDS011;39658;51.090;-1.786;2023-10-08T01:38:08;14.57;;;5.60;;
53261;SDS011;39658;51.090;-1.786;2023-10-08T01:40:39;16.73;;;5.43;;
53261;SDS011;39658;51.090;-1.786;2023-10-08T01:43:06;17.00;;;6.30;;
53261;SDS011;39658;51.090;-1.786;2023-10-08T01:45:35;20.17;;;5.35;;
53261;SDS011;39658;51.090;-1.786;2023-10-08T01:48:06;16.55;;;5.40;;
53261;SDS011;39658;51.090;-1.786;2023-10-08T01:50:34;14.02;;;5.93;;
53261;SDS011;39658;51.090;-1.786;2023-10-08T01:53:01;19.15;;;6.20;;
53261;SDS011;39658;51.090;-1.786;2023-10-08T01:55:32;13.43;;;6.13;;
53261;SDS011;39658;51.090;-1.786;2023-10-08T01:58:10;16.15;;;5.95;;
53261;SDS011;39658;51.090;-1.786;2023-10-08T02:00:41;17.33;;;5.65;;
53261;SDS011;39658;51.090;-1.786;2023-10-08T02:03:10;18.02;;;6.40;;
53261;SDS011;39658;51.090;-1.786;2023-10-08T02:05:38;19.20;;;6.07;;
53261;SDS011;39658;51.090;-1.786;2023-10-08T02:08:07;20.65;;;6.70;;
53261;SDS011;39658;51.090;-1.786;2023-10-08T02:10:36;13.77;;;5.80;;
53261;SDS011;39658;51.090;-1.786;2023-10-08T02:13:03;15.90;;;5.88;;
53261;SDS011;39658;51.090;-1.786;2023-10-08T02:15:31;16.70;;;5.65;;
53261;SDS011;39658;51.090;-1.786;2023-10-08T02:17:58;20.17;;;6.28;;
53261;SDS011;39658;51.090;-1.786;2023-10-08T02:20:24;17.02;;;7.10;;
53261;SDS011;39658;51.090;-1.786;2023-10-08T02:22:52;18.77;;;7.60;;
53261;SDS011;39658;51.090;-1.786;2023-10-08T02:25:20;31.10;;;9.32;;
53261;SDS011;39658;51.090;-1.786;2023-10-08T02:27:49;23.52;;;7.68;;
53261;SDS011;39658;51.090;-1.786;2023-10-08T02:30:16;29.52;;;8.35;;
53261;SDS011;39658;51.090;-1.786;2023-10-08T02:32:44;22.10;;;7.90;;
53261;SDS011;39658;51.090;-1.786;2023-10-08T02:35:11;23.42;;;8.13;;
53261;SDS011;39658;51.090;-1.786;2023-10-08T02:37:38;19.88;;;8.15;;
53261;SDS011;39658;51.090;-1.786;2023-10-08T02:40:06;17.85;;;6.93;;
53261;SDS011;39658;51.090;-1.786;2023-10-08T02:42:41;23.85;;;7.35;;
53261;SDS011;39658;51.090;-1.786;2023-10-08T02:45:11;18.88;;;7.90;;
53261;SDS011;39658;51.090;-1.786;2023-10-08T02:47:39;26.40;;;7.75;;
53261;SDS011;39658;51.090;-1.786;2023-10-08T02:50:08;18.83;;;6.45;;
53261;SDS011;39658;51.090;-1.786;2023-10-08T02:52:41;12.80;;;5.50;;
53261;SDS011;39658;51.090;-1.786;2023-10-08T02:55:09;15.65;;;5.95;;
53261;SDS011;39658;51.090;-1.786;2023-10-08T02:57:48;17.55;;;6.70;;
53261;SDS011;39658;51.090;-1.786;2023-10-08T03:00:17;17.35;;;6.65;;
53261;SDS011;39658;51.090;-1.786;2023-10-08T03:02:45;17.95;;;7.45;;
53261;SDS011;39658;51.090;-1.786;2023-10-08T03:05:12;20.35;;;6.32;;
53261;SDS011;39658;51.090;-1.786;2023-10-08T03:07:42;20.52;;;6.70;;
53261;SDS011;39658;51.090;-1.786;2023-10-08T03:10:09;19.00;;;6.40;;
53261;SDS011;39658;51.090;-1.786;2023-10-08T03:12:43;18.08;;;7.85;;
53261;SDS011;39658;51.090;-1.786;2023-10-08T03:15:11;16.33;;;6.60;;
53261;SDS011;39658;51.090;-1.786;2023-10-08T03:17:41;24.90;;;8.77;;
53261;SDS011;39658;51.090;-1.786;2023-10-08T03:20:15;21.95;;;7.50;;
53261;SDS011;39658;51.090;-1.786;2023-10-08T03:23:03;19.13;;;8.05;;
53261;SDS011;39658;51.090;-1.786;2023-10-08T03:25:36;20.33;;;8.00;;
53261;SDS011;39658;51.090;-1.786;2023-10-08T03:28:06;21.60;;;8.07;;
53261;SDS011;39658;51.090;-1.786;2023-10-08T03:30:34;19.65;;;8.45;;
53261;SDS011;39658;51.090;-1.786;2023-10-08T03:33:14;27.02;;;8.70;;
53261;SDS011;39658;51.090;-1.786;2023-10-08T03:35:47;27.15;;;8.93;;
53261;SDS011;39658;51.090;-1.786;2023-10-08T03:38:14;26.40;;;10.25;;
53261;SDS011;39658;51.090;-1.786;2023-10-08T03:40:53;26.52;;;10.70;;
53261;SDS011;39658;51.090;-1.786;2023-10-08T03:43:29;29.65;;;11.32;;
53261;SDS011;39658;51.090;-1.786;2023-10-08T03:46:08;36.50;;;11.88;;
53261;SDS011;39658;51.090;-1.786;2023-10-08T03:48:42;31.35;;;10.25;;
53261;SDS011;39658;51.090;-1.786;2023-10-08T03:51:10;33.33;;;10.68;;
53261;SDS011;39658;51.090;-1.786;2023-10-08T03:53:38;31.52;;;10.25;;
53261;SDS011;39658;51.090;-1.786;2023-10-08T03:56:23;31.45;;;10.00;;
53261;SDS011;39658;51.090;-1.786;2023-10-08T03:58:54;34.05;;;10.43;;
53261;SDS011;39658;51.090;-1.786;2023-10-08T04:01:25;27.42;;;10.65;;
53261;SDS011;39658;51.090;-1.786;2023-10-08T04:03:59;31.00;;;10.55;;
53261;SDS011;39658;51.090;-1.786;2023-10-08T04:06:26;24.85;;;10.65;;
53261;SDS011;39658;51.090;-1.786;2023-10-08T04:09:03;28.35;;;10.25;;
53261;SDS011;39658;51.090;-1.786;2023-10-08T04:11:49;27.67;;;9.75;;
53261;SDS011;39658;51.090;-1.786;2023-10-08T04:14:19;27.42;;;9.50;;
53261;SDS011;39658;51.090;-1.786;2023-10-08T04:16:46;27.15;;;9.73;;
53261;SDS011;39658;51.090;-1.786;2023-10-08T04:19:18;29.90;;;10.38;;
53261;SDS011;39658;51.090;-1.786;2023-10-08T04:21:46;24.35;;;9.23;;
53261;SDS011;39658;51.090;-1.786;2023-10-08T04:24:20;22.73;;;7.57;;
53261;SDS011;39658;51.090;-1.786;2023-10-08T04:26:54;23.33;;;8.93;;
53261;SDS011;39658;51.090;-1.786;2023-10-08T04:29:22;21.75;;;7.55;;
53261;SDS011;39658;51.090;-1.786;2023-10-08T04:31:50;21.75;;;8.50;;
53261;SDS011;39658;51.090;-1.786;2023-10-08T04:34:28;24.40;;;9.15;;
53261;SDS011;39658;51.090;-1.786;2023-10-08T04:36:58;18.88;;;8.30;;
53261;SDS011;39658;51.090;-1.786;2023-10-08T04:39:26;27.45;;;9.70;;
53261;SDS011;39658;51.090;-1.786;2023-10-08T04:41:58;23.05;;;7.47;;
53261;SDS011;39658;51.090;-1.786;2023-10-08T04:44:31;25.80;;;7.68;;
53261;SDS011;39658;51.090;-1.786;2023-10-08T04:46:58;24.73;;;8.55;;
53261;SDS011;39658;51.090;-1.786;2023-10-08T04:49:32;20.05;;;7.90;;
53261;SDS011;39658;51.090;-1.786;2023-10-08T04:51:59;23.40;;;7.68;;
53261;SDS011;39658;51.090;-1.786;2023-10-08T04:54:30;20.50;;;7.70;;
53261;SDS011;39658;51.090;-1.786;2023-10-08T04:56:58;21.63;;;8.15;;
53261;SDS011;39658;51.090;-1.786;2023-10-08T04:59:25;22.08;;;8.50;;
53261;SDS011;39658;51.090;-1.786;2023-10-08T05:01:59;23.70;;;9.35;;
53261;SDS011;39658;51.090;-1.786;2023-10-08T05:04:46;22.35;;;7.63;;
53261;SDS011;39658;51.090;-1.786;2023-10-08T05:07:22;18.05;;;8.13;;
53261;SDS011;39658;51.090;-1.786;2023-10-08T05:10:03;18.10;;;7.55;;
53261;SDS011;39658;51.090;-1.786;2023-10-08T05:12:44;21.30;;;7.53;;
53261;SDS011;39658;51.090;-1.786;2023-10-08T05:15:16;18.50;;;7.45;;
53261;SDS011;39658;51.090;-1.786;2023-10-08T05:17:58;19.50;;;7.43;;
53261;SDS011;39658;51.090;-1.786;2023-10-08T05:20:39;17.40;;;8.50;;
53261;SDS011;39658;51.090;-1.786;2023-10-08T05:23:10;24.52;;;8.13;;
53261;SDS011;39658;51.090;-1.786;2023-10-08T05:26:06;18.90;;;7.88;;
53261;SDS011;39658;51.090;-1.786;2023-10-08T05:28:34;20.67;;;9.13;;
53261;SDS011;39658;51.090;-1.786;2023-10-08T05:31:11;24.25;;;8.68;;
53261;SDS011;39658;51.090;-1.786;2023-10-08T05:33:47;18.83;;;7.72;;
53261;SDS011;39658;51.090;-1.786;2023-10-08T05:39:15;19.23;;;7.55;;
53261;SDS011;39658;51.090;-1.786;2023-10-08T05:41:54;20.73;;;7.93;;
53261;SDS011;39658;51.090;-1.786;2023-10-08T05:44:38;19.95;;;8.80;;
53261;SDS011;39658;51.090;-1.786;2023-10-08T05:47:05;20.17;;;8.15;;
53261;SDS011;39658;51.090;-1.786;2023-10-08T05:49:50;19.33;;;7.35;;
53261;SDS011;39658;51.090;-1.786;2023-10-08T05:52:34;19.23;;;6.88;;
53261;SDS011;39658;51.090;-1.786;2023-10-08T05:55:16;22.58;;;7.90;;
53261;SDS011;39658;51.090;-1.786;2023-10-08T05:57:50;19.42;;;7.82;;
53261;SDS011;39658;51.090;-1.786;2023-10-08T06:00:38;18.35;;;7.63;;
53261;SDS011;39658;51.090;-1.786;2023-10-08T06:03:23;16.25;;;7.03;;
53261;SDS011;39658;51.090;-1.786;2023-10-08T06:06:02;29.58;;;9.07;;
53261;SDS011;39658;51.090;-1.786;2023-10-08T06:08:44;24.25;;;9.82;;
53261;SDS011;39658;51.090;-1.786;2023-10-08T06:11:29;19.88;;;9.05;;
53261;SDS011;39658;51.090;-1.786;2023-10-08T06:14:06;23.15;;;8.18;;
53261;SDS011;39658;51.090;-1.786;2023-10-08T06:16:38;22.92;;;8.77;;
53261;SDS011;39658;51.090;-1.786;2023-10-08T06:19:09;22.95;;;9.15;;
53261;SDS011;39658;51.090;-1.786;2023-10-08T06:21:36;22.98;;;8.55;;
53261;SDS011;39658;51.090;-1.786;2023-10-08T06:24:06;24.92;;;9.30;;
53261;SDS011;39658;51.090;-1.786;2023-10-08T06:26:38;24.02;;;9.68;;
53261;SDS011;39658;51.090;-1.786;2023-10-08T06:29:10;20.00;;;8.35;;
53261;SDS011;39658;51.090;-1.786;2023-10-08T06:31:51;26.35;;;9.90;;
53261;SDS011;39658;51.090;-1.786;2023-10-08T06:34:20;23.83;;;9.05;;
53261;SDS011;39658;51.090;-1.786;2023-10-08T06:36:49;22.67;;;9.25;;
53261;SDS011;39658;51.090;-1.786;2023-10-08T06:39:20;25.70;;;9.57;;
53261;SDS011;39658;51.090;-1.786;2023-10-08T06:41:51;24.05;;;9.55;;
53261;SDS011;39658;51.090;-1.786;2023-10-08T06:44:19;26.92;;;9.90;;
53261;SDS011;39658;51.090;-1.786;2023-10-08T06:46:47;26.77;;;9.45;;
53261;SDS011;39658;51.090;-1.786;2023-10-08T06:49:17;25.60;;;10.25;;
53261;SDS011;39658;51.090;-1.786;2023-10-08T06:51:48;31.02;;;9.05;;
53261;SDS011;39658;51.090;-1.786;2023-10-08T06:54:15;24.33;;;9.77;;
53261;SDS011;39658;51.090;-1.786;2023-10-08T06:56:44;27.10;;;9.45;;
53261;SDS011;39658;51.090;-1.786;2023-10-08T06:59:16;26.25;;;9.65;;
53261;SDS011;39658;51.090;-1.786;2023-10-08T07:01:44;23.83;;;9.65;;
53261;SDS011;39658;51.090;-1.786;2023-10-08T07:04:11;26.92;;;10.20;;
53261;SDS011;39658;51.090;-1.786;2023-10-08T07:06:39;26.42;;;10.55;;
53261;SDS011;39658;51.090;-1.786;2023-10-08T07:09:06;28.35;;;10.07;;
53261;SDS011;39658;51.090;-1.786;2023-10-08T07:11:49;21.52;;;10.60;;
53261;SDS011;39658;51.090;-1.786;2023-10-08T07:14:20;23.92;;;9.85;;
53261;SDS011;39658;51.090;-1.786;2023-10-08T07:16:47;28.45;;;10.10;;
53261;SDS011;39658;51.090;-1.786;2023-10-08T07:19:17;21.02;;;9.20;;
53261;SDS011;39658;51.090;-1.786;2023-10-08T07:21:45;20.02;;;8.88;;
53261;SDS011;39658;51.090;-1.786;2023-10-08T07:24:12;20.88;;;8.23;;
53261;SDS011;39658;51.090;-1.786;2023-10-08T07:29:13;17.73;;;8.48;;
53261;SDS011;39658;51.090;-1.786;2023-10-08T07:31:42;17.95;;;8.85;;
53261;SDS011;39658;51.090;-1.786;2023-10-08T07:34:14;25.80;;;10.60;;
53261;SDS011;39658;51.090;-1.786;2023-10-08T07:36:43;23.80;;;9.57;;
53261;SDS011;39658;51.090;-1.786;2023-10-08T07:39:12;25.05;;;9.43;;
53261;SDS011;39658;51.090;-1.786;2023-10-08T07:41:50;18.73;;;8.68;;
53261;SDS011;39658;51.090;-1.786;2023-10-08T07:44:20;20.98;;;7.88;;
53261;SDS011;39658;51.090;-1.786;2023-10-08T07:46:48;18.60;;;7.93;;
53261;SDS011;39658;51.090;-1.786;2023-10-08T07:49:15;21.15;;;8.82;;
53261;SDS011;39658;51.090;-1.786;2023-10-08T07:51:42;23.38;;;8.65;;
53261;SDS011;39658;51.090;-1.786;2023-10-08T07:54:16;32.90;;;8.88;;
53261;SDS011;39658;51.090;-1.786;2023-10-08T07:56:45;19.23;;;7.57;;
53261;SDS011;39658;51.090;-1.786;2023-10-08T07:59:13;22.10;;;7.32;;
53261;SDS011;39658;51.090;-1.786;2023-10-08T08:01:43;15.18;;;7.53;;
53261;SDS011;39658;51.090;-1.786;2023-10-08T08:04:10;16.45;;;6.93;;
53261;SDS011;39658;51.090;-1.786;2023-10-08T08:06:46;18.30;;;7.47;;
53261;SDS011;39658;51.090;-1.786;2023-10-08T08:09:15;16.50;;;6.88;;
53261;SDS011;39658;51.090;-1.786;2023-10-08T08:11:44;16.50;;;7.40;;
53261;SDS011;39658;51.090;-1.786;2023-10-08T08:14:12;16.42;;;7.05;;
53261;SDS011;39658;51.090;-1.786;2023-10-08T08:16:43;14.65;;;6.45;;
53261;SDS011;39658;51.090;-1.786;2023-10-08T08:19:13;20.15;;;6.55;;
53261;SDS011;39658;51.090;-1.786;2023-10-08T08:21:42;19.70;;;6.88;;
53261;SDS011;39658;51.090;-1.786;2023-10-08T08:24:11;22.25;;;7.40;;
53261;SDS011;39658;51.090;-1.786;2023-10-08T08:26:38;16.08;;;6.45;;
53261;SDS011;39658;51.090;-1.786;2023-10-08T08:29:26;15.05;;;6.30;;
53261;SDS011;39658;51.090;-1.786;2023-10-08T08:31:55;18.40;;;6.50;;
53261;SDS011;39658;51.090;-1.786;2023-10-08T08:34:22;13.95;;;6.88;;
53261;SDS011;39658;51.090;-1.786;2023-10-08T08:36:49;14.90;;;6.05;;
53261;SDS011;39658;51.090;-1.786;2023-10-08T08:39:16;17.15;;;6.50;;
53261;SDS011;39658;51.090;-1.786;2023-10-08T08:41:55;14.50;;;5.78;;
53261;SDS011;39658;51.090;-1.786;2023-10-08T08:44:27;12.63;;;5.63;;
53261;SDS011;39658;51.090;-1.786;2023-10-08T08:47:00;13.23;;;5.75;;
53261;SDS011;39658;51.090;-1.786;2023-10-08T08:49:29;14.13;;;5.90;;
53261;SDS011;39658;51.090;-1.786;2023-10-08T08:52:00;12.70;;;5.60;;
53261;SDS011;39658;51.090;-1.786;2023-10-08T08:54:27;12.20;;;6.18;;
53261;SDS011;39658;51.090;-1.786;2023-10-08T08:56:56;14.63;;;5.18;;
53261;SDS011;39658;51.090;-1.786;2023-10-08T08:59:25;11.15;;;4.88;;
53261;SDS011;39658;51.090;-1.786;2023-10-08T09:01:55;13.98;;;5.93;;
53261;SDS011;39658;51.090;-1.786;2023-10-08T09:04:31;10.93;;;4.25;;
53261;SDS011;39658;51.090;-1.786;2023-10-08T09:06:58;13.60;;;4.40;;
53261;SDS011;39658;51.090;-1.786;2023-10-08T09:09:32;10.07;;;4.75;;
53261;SDS011;39658;51.090;-1.786;2023-10-08T09:12:00;12.82;;;4.97;;
53261;SDS011;39658;51.090;-1.786;2023-10-08T09:14:29;9.52;;;4.68;;
53261;SDS011;39658;51.090;-1.786;2023-10-08T09:16:59;8.55;;;4.28;;
53261;SDS011;39658;51.090;-1.786;2023-10-08T09:19:35;9.68;;;4.35;;
53261;SDS011;39658;51.090;-1.786;2023-10-08T09:22:03;12.40;;;4.63;;
53261;SDS011;39658;51.090;-1.786;2023-10-08T09:24:31;10.95;;;3.90;;
53261;SDS011;39658;51.090;-1.786;2023-10-08T09:26:59;10.05;;;4.47;;
53261;SDS011;39658;51.090;-1.786;2023-10-08T09:29:27;13.13;;;3.83;;
53261;SDS011;39658;51.090;-1.786;2023-10-08T09:31:55;9.40;;;4.57;;
53261;SDS011;39658;51.090;-1.786;2023-10-08T09:34:25;12.65;;;4.13;;
53261;SDS011;39658;51.090;-1.786;2023-10-08T09:36:55;10.75;;;5.45;;
53261;SDS011;39658;51.090;-1.786;2023-10-08T09:39:25;10.82;;;5.53;;
53261;SDS011;39658;51.090;-1.786;2023-10-08T09:41:54;12.35;;;5.45;;
53261;SDS011;39658;51.090;-1.786;2023-10-08T09:44:21;11.07;;;4.80;;
53261;SDS011;39658;51.090;-1.786;2023-10-08T09:46:52;9.80;;;3.95;;
53261;SDS011;39658;51.090;-1.786;2023-10-08T09:49:23;10.30;;;4.40;;
53261;SDS011;39658;51.090;-1.786;2023-10-08T09:51:58;12.25;;;5.47;;
53261;SDS011;39658;51.090;-1.786;2023-10-08T09:54:28;10.25;;;4.85;;
53261;SDS011;39658;51.090;-1.786;2023-10-08T09:56:58;13.30;;;4.10;;
53261;SDS011;39658;51.090;-1.786;2023-10-08T09:59:26;15.15;;;4.93;;
53261;SDS011;39658;51.090;-1.786;2023-10-08T10:01:54;10.07;;;4.05;;
53261;SDS011;39658;51.090;-1.786;2023-10-08T10:04:24;9.38;;;4.22;;
53261;SDS011;39658;51.090;-1.786;2023-10-08T10:06:53;10.52;;;4.60;;
53261;SDS011;39658;51.090;-1.786;2023-10-08T10:09:24;10.02;;;5.00;;
53261;SDS011;39658;51.090;-1.786;2023-10-08T10:11:53;11.35;;;4.38;;
53261;SDS011;39658;51.090;-1.786;2023-10-08T10:14:22;10.70;;;5.30;;
53261;SDS011;39658;51.090;-1.786;2023-10-08T10:16:55;10.43;;;5.60;;
53261;SDS011;39658;51.090;-1.786;2023-10-08T10:19:36;13.85;;;6.88;;
53261;SDS011;39658;51.090;-1.786;2023-10-08T10:22:03;14.13;;;6.65;;
53261;SDS011;39658;51.090;-1.786;2023-10-08T10:24:33;15.18;;;8.50;;
53261;SDS011;39658;51.090;-1.786;2023-10-08T10:27:12;22.65;;;9.90;;
53261;SDS011;39658;51.090;-1.786;2023-10-08T10:29:41;19.92;;;10.02;;
53261;SDS011;39658;51.090;-1.786;2023-10-08T10:32:10;20.25;;;9.70;;
53261;SDS011;39658;51.090;-1.786;2023-10-08T10:34:39;20.08;;;8.93;;
53261;SDS011;39658;51.090;-1.786;2023-10-08T10:37:06;16.23;;;7.25;;
53261;SDS011;39658;51.090;-1.786;2023-10-08T10:39:49;11.30;;;5.28;;
53261;SDS011;39658;51.090;-1.786;2023-10-08T10:42:18;12.65;;;4.97;;
53261;SDS011;39658;51.090;-1.786;2023-10-08T10:44:46;9.30;;;4.90;;
53261;SDS011;39658;51.090;-1.786;2023-10-08T10:47:15;13.00;;;5.00;;
53261;SDS011;39658;51.090;-1.786;2023-10-08T10:49:52;10.93;;;4.95;;
53261;SDS011;39658;51.090;-1.786;2023-10-08T10:52:40;14.82;;;5.95;;
53261;SDS011;39658;51.090;-1.786;2023-10-08T10:55:13;12.68;;;5.50;;
53261;SDS011;39658;51.090;-1.786;2023-10-08T10:57:57;14.60;;;6.35;;
53261;SDS011;39658;51.090;-1.786;2023-10-08T11:00:29;15.43;;;7.65;;
53261;SDS011;39658;51.090;-1.786;2023-10-08T11:03:22;12.52;;;6.30;;
53261;SDS011;39658;51.090;-1.786;2023-10-08T11:05:55;16.52;;;5.82;;
53261;SDS011;39658;51.090;-1.786;2023-10-08T11:08:24;13.27;;;5.57;;
53261;SDS011;39658;51.090;-1.786;2023-10-08T11:10:53;12.80;;;5.63;;
53261;SDS011;39658;51.090;-1.786;2023-10-08T11:13:24;12.43;;;5.22;;
53261;SDS011;39658;51.090;-1.786;2023-10-08T11:15:53;11.35;;;4.40;;
53261;SDS011;39658;51.090;-1.786;2023-10-08T11:18:23;77.88;;;39.85;;
53261;SDS011;39658;51.090;-1.786;2023-10-08T11:20:52;44.58;;;23.17;;
53261;SDS011;39658;51.090;-1.786;2023-10-08T11:23:41;66.80;;;31.52;;
53261;SDS011;39658;51.090;-1.786;2023-10-08T11:26:10;19.58;;;6.70;;
53261;SDS011;39658;51.090;-1.786;2023-10-08T11:28:37;19.60;;;9.43;;
53261;SDS011;39658;51.090;-1.786;2023-10-08T11:31:09;10.15;;;3.72;;
53261;SDS011;39658;51.090;-1.786;2023-10-08T11:33:39;13.57;;;4.60;;
53261;SDS011;39658;51.090;-1.786;2023-10-08T11:36:06;8.10;;;2.88;;
53261;SDS011;39658;51.090;-1.786;2023-10-08T11:38:43;7.97;;;3.63;;
53261;SDS011;39658;51.090;-1.786;2023-10-08T11:41:15;7.50;;;2.88;;
53261;SDS011;39658;51.090;-1.786;2023-10-08T11:43:53;11.82;;;3.15;;
53261;SDS011;39658;51.090;-1.786;2023-10-08T11:46:22;9.40;;;3.10;;
53261;SDS011;39658;51.090;-1.786;2023-10-08T11:48:52;6.85;;;2.38;;
53261;SDS011;39658;51.090;-1.786;2023-10-08T11:51:22;7.45;;;3.00;;
53261;SDS011;39658;51.090;-1.786;2023-10-08T11:53:49;5.10;;;2.80;;
53261;SDS011;39658;51.090;-1.786;2023-10-08T11:56:19;8.68;;;3.08;;
53261;SDS011;39658;51.090;-1.786;2023-10-08T11:58:48;6.63;;;2.13;;
53261;SDS011;39658;51.090;-1.786;2023-10-08T12:01:16;5.75;;;2.40;;
53261;SDS011;39658;51.090;-1.786;2023-10-08T12:03:43;7.85;;;3.00;;
53261;SDS011;39658;51.090;-1.786;2023-10-08T12:06:10;6.70;;;2.63;;
53261;SDS011;39658;51.090;-1.786;2023-10-08T12:08:40;8.63;;;2.33;;
53261;SDS011;39658;51.090;-1.786;2023-10-08T12:11:11;8.57;;;3.55;;
53261;SDS011;39658;51.090;-1.786;2023-10-08T12:13:40;8.95;;;2.63;;
53261;SDS011;39658;51.090;-1.786;2023-10-08T12:16:11;7.50;;;2.70;;
53261;SDS011;39658;51.090;-1.786;2023-10-08T12:18:43;10.23;;;3.40;;
53261;SDS011;39658;51.090;-1.786;2023-10-08T12:21:18;8.68;;;2.58;;
53261;SDS011;39658;51.090;-1.786;2023-10-08T12:23:45;6.75;;;2.92;;
53261;SDS011;39658;51.090;-1.786;2023-10-08T12:26:12;7.05;;;2.25;;
53261;SDS011;39658;51.090;-1.786;2023-10-08T12:28:42;8.05;;;2.33;;
53261;SDS011;39658;51.090;-1.786;2023-10-08T12:31:11;6.70;;;2.70;;
53261;SDS011;39658;51.090;-1.786;2023-10-08T12:33:40;6.97;;;2.50;;
53261;SDS011;39658;51.090;-1.786;2023-10-08T12:36:08;7.10;;;2.90;;
53261;SDS011;39658;51.090;-1.786;2023-10-08T12:38:39;10.57;;;3.08;;
53261;SDS011;39658;51.090;-1.786;2023-10-08T12:41:07;8.00;;;3.47;;
53261;SDS011;39658;51.090;-1.786;2023-10-08T12:43:38;9.43;;;3.55;;
53261;SDS011;39658;51.090;-1.786;2023-10-08T12:46:09;6.35;;;2.80;;
53261;SDS011;39658;51.090;-1.786;2023-10-08T12:48:43;11.05;;;3.60;;
53261;SDS011;39658;51.090;-1.786;2023-10-08T12:51:12;7.70;;;3.30;;
53261;SDS011;39658;51.090;-1.786;2023-10-08T12:53:40;8.73;;;3.20;;
53261;SDS011;39658;51.090;-1.786;2023-10-08T12:56:15;7.55;;;3.17;;
53261;SDS011;39658;51.090;-1.786;2023-10-08T12:58:42;8.43;;;3.13;;
53261;SDS011;39658;51.090;-1.786;2023-10-08T13:01:14;8.05;;;3.40;;
53261;SDS011;39658;51.090;-1.786;2023-10-08T13:03:42;8.65;;;3.13;;
53261;SDS011;39658;51.090;-1.786;2023-10-08T13:06:12;10.55;;;3.33;;
53261;SDS011;39658;51.090;-1.786;2023-10-08T13:08:47;7.95;;;3.10;;
53261;SDS011;39658;51.090;-1.786;2023-10-08T13:11:14;10.60;;;3.72;;
53261;SDS011;39658;51.090;-1.786;2023-10-08T13:13:40;7.95;;;2.97;;
53261;SDS011;39658;51.090;-1.786;2023-10-08T13:16:07;8.40;;;3.20;;
53261;SDS011;39658;51.090;-1.786;2023-10-08T13:18:36;10.27;;;3.70;;
53261;SDS011;39658;51.090;-1.786;2023-10-08T13:21:03;11.68;;;3.08;;
53261;SDS011;39658;51.090;-1.786;2023-10-08T13:23:31;8.02;;;3.20;;
53261;SDS011;39658;51.090;-1.786;2023-10-08T13:26:00;9.55;;;3.20;;
53261;SDS011;39658;51.090;-1.786;2023-10-08T13:28:29;9.05;;;2.92;;
53261;SDS011;39658;51.090;-1.786;2023-10-08T13:33:25;6.65;;;3.13;;
53261;SDS011;39658;51.090;-1.786;2023-10-08T13:35:55;6.82;;;3.03;;
53261;SDS011;39658;51.090;-1.786;2023-10-08T13:38:22;11.75;;;3.42;;
53261;SDS011;39658;51.090;-1.786;2023-10-08T13:40:48;7.75;;;2.40;;
53261;SDS011;39658;51.090;-1.786;2023-10-08T13:43:28;10.27;;;3.10;;
53261;SDS011;39658;51.090;-1.786;2023-10-08T13:46:02;8.90;;;3.38;;
53261;SDS011;39658;51.090;-1.786;2023-10-08T13:48:31;11.38;;;3.47;;
53261;SDS011;39658;51.090;-1.786;2023-10-08T13:51:01;11.68;;;3.08;;
53261;SDS011;39658;51.090;-1.786;2023-10-08T13:53:28;7.88;;;3.22;;
53261;SDS011;39658;51.090;-1.786;2023-10-08T13:55:57;10.13;;;3.67;;
53261;SDS011;39658;51.090;-1.786;2023-10-08T13:58:25;11.35;;;3.72;;
53261;SDS011;39658;51.090;-1.786;2023-10-08T14:00:53;9.82;;;3.88;;
53261;SDS011;39658;51.090;-1.786;2023-10-08T14:03:20;7.78;;;3.53;;
53261;SDS011;39658;51.090;-1.786;2023-10-08T14:05:47;9.63;;;3.60;;
53261;SDS011;39658;51.090;-1.786;2023-10-08T14:08:18;9.20;;;2.97;;
53261;SDS011;39658;51.090;-1.786;2023-10-08T14:10:45;7.93;;;3.10;;
53261;SDS011;39658;51.090;-1.786;2023-10-08T14:13:13;11.23;;;3.78;;
53261;SDS011;39658;51.090;-1.786;2023-10-08T14:15:44;10.43;;;2.95;;
53261;SDS011;39658;51.090;-1.786;2023-10-08T14:18:15;9.18;;;3.40;;
53261;SDS011;39658;51.090;-1.786;2023-10-08T14:20:43;9.23;;;3.60;;
53261;SDS011;39658;51.090;-1.786;2023-10-08T14:23:12;7.20;;;2.83;;
53261;SDS011;39658;51.090;-1.786;2023-10-08T14:25:43;9.48;;;3.22;;
53261;SDS011;39658;51.090;-1.786;2023-10-08T14:28:11;9.50;;;3.50;;
53261;SDS011;39658;51.090;-1.786;2023-10-08T14:33:18;11.85;;;3.50;;
53261;SDS011;39658;51.090;-1.786;2023-10-08T14:35:49;8.35;;;3.65;;
53261;SDS011;39658;51.090;-1.786;2023-10-08T14:38:34;8.98;;;3.60;;
53261;SDS011;39658;51.090;-1.786;2023-10-08T14:41:20;12.30;;;4.03;;
53261;SDS011;39658;51.090;-1.786;2023-10-08T14:44:04;13.98;;;5.65;;
53261;SDS011;39658;51.090;-1.786;2023-10-08T14:46:32;13.20;;;4.57;;
53261;SDS011;39658;51.090;-1.786;2023-10-08T14:49:02;7.53;;;3.63;;
53261;SDS011;39658;51.090;-1.786;2023-10-08T14:51:35;10.30;;;3.20;;
53261;SDS011;39658;51.090;-1.786;2023-10-08T14:54:05;7.47;;;3.33;;
53261;SDS011;39658;51.090;-1.786;2023-10-08T14:56:35;7.93;;;3.88;;
53261;SDS011;39658;51.090;-1.786;2023-10-08T14:59:02;9.63;;;3.45;;
53261;SDS011;39658;51.090;-1.786;2023-10-08T15:01:30;7.03;;;2.72;;